Latest METARs, TAFs and NOTAMs for TBPB


---------------------------------------------------------------------------
	(OBSERVATIONS)
TBPB 231400Z 08012KT 9999 FEW012CB 27/26 Q1014 NOSIG=
TBPB 231300Z 09023KT 6000 SHRA BKN014 24/23 Q1014 NOSIG=
TBPB 231243Z 10024KT 6000 SHRA BKN014 25/24 Q1014 NOSIG=
TBPB 231200Z 08014KT 9999 -RA FEW016 28/25 Q1013 TEMPO SHRA=
---------------------------------------------------------------------------
	(TERMINAL AREA FORECAST)
TBPB 231100Z 2312/2412 08015KT 9999 SCT018 SCT038
    TEMPO 2320/2324 SHRA BKN015
    TEMPO 2402/2406 3000 TSRA SCT012CB BKN014=
---------------------------------------------------------------------------
	(NOTAMS)


Sorry, no NOTAM available for TBPB
---------------------------------------------------------------------------